sensor_id;sensor_type;location;lat;lon;timestamp;temperature;humidity
10051;DHT22;5065;46.942;7.432;2022-07-29T00:00:21;21.00;99.90
10051;DHT22;5065;46.942;7.432;2022-07-29T00:02:48;21.00;99.90
10051;DHT22;5065;46.942;7.432;2022-07-29T00:05:15;20.90;99.90
10051;DHT22;5065;46.942;7.432;2022-07-29T00:07:42;20.90;99.90
10051;DHT22;5065;46.942;7.432;2022-07-29T00:10:10;20.90;99.90
10051;DHT22;5065;46.942;7.432;2022-07-29T00:12:37;20.80;99.90
10051;DHT22;5065;46.942;7.432;2022-07-29T00:15:06;20.80;99.90
10051;DHT22;5065;46.942;7.432;2022-07-29T00:17:34;20.70;99.90
10051;DHT22;5065;46.942;7.432;2022-07-29T00:20:01;20.60;99.90
10051;DHT22;5065;46.942;7.432;2022-07-29T00:22:28;20.60;99.90
10051;DHT22;5065;46.942;7.432;2022-07-29T00:24:55;20.40;99.90
10051;DHT22;5065;46.942;7.432;2022-07-29T00:27:22;20.40;99.90
10051;DHT22;5065;46.942;7.432;2022-07-29T00:29:49;20.40;99.90
10051;DHT22;5065;46.942;7.432;2022-07-29T00:32:18;20.40;99.90
10051;DHT22;5065;46.942;7.432;2022-07-29T00:34:45;20.40;99.90
10051;DHT22;5065;46.942;7.432;2022-07-29T00:37:29;20.40;99.90
10051;DHT22;5065;46.942;7.432;2022-07-29T00:39:56;20.40;99.90
10051;DHT22;5065;46.942;7.432;2022-07-29T00:42:23;20.30;99.90
10051;DHT22;5065;46.942;7.432;2022-07-29T00:44:51;20.40;99.90
10051;DHT22;5065;46.942;7.432;2022-07-29T00:47:20;20.40;99.90
10051;DHT22;5065;46.942;7.432;2022-07-29T00:49:48;20.30;99.90
10051;DHT22;5065;46.942;7.432;2022-07-29T00:52:15;20.30;99.90
10051;DHT22;5065;46.942;7.432;2022-07-29T00:54:42;20.30;99.90
10051;DHT22;5065;46.942;7.432;2022-07-29T00:57:09;20.20;99.90
10051;DHT22;5065;46.942;7.432;2022-07-29T00:59:36;20.20;99.90
10051;DHT22;5065;46.942;7.432;2022-07-29T01:02:04;20.20;99.90
10051;DHT22;5065;46.942;7.432;2022-07-29T01:04:32;20.20;99.90
10051;DHT22;5065;46.942;7.432;2022-07-29T01:07:01;20.20;99.90
10051;DHT22;5065;46.942;7.432;2022-07-29T01:09:28;20.20;99.90
10051;DHT22;5065;46.942;7.432;2022-07-29T01:11:56;20.30;99.90
10051;DHT22;5065;46.942;7.432;2022-07-29T01:14:23;20.30;99.90
10051;DHT22;5065;46.942;7.432;2022-07-29T01:16:54;20.30;99.90
10051;DHT22;5065;46.942;7.432;2022-07-29T01:19:47;20.30;99.90
10051;DHT22;5065;46.942;7.432;2022-07-29T01:22:26;20.30;99.90
10051;DHT22;5065;46.942;7.432;2022-07-29T01:25:08;20.20;99.90
10051;DHT22;5065;46.942;7.432;2022-07-29T01:27:48;20.30;99.90
10051;DHT22;5065;46.942;7.432;2022-07-29T01:30:19;20.30;99.90
10051;DHT22;5065;46.942;7.432;2022-07-29T01:32:51;20.30;99.90
10051;DHT22;5065;46.942;7.432;2022-07-29T01:35:21;20.20;99.90
10051;DHT22;5065;46.942;7.432;2022-07-29T01:37:55;20.20;99.90
10051;DHT22;5065;46.942;7.432;2022-07-29T01:40:27;20.30;99.90
10051;DHT22;5065;46.942;7.432;2022-07-29T01:42:58;20.30;99.90
10051;DHT22;5065;46.942;7.432;2022-07-29T01:45:31;20.30;99.90
10051;DHT22;5065;46.942;7.432;2022-07-29T01:48:06;20.30;99.90
10051;DHT22;5065;46.942;7.432;2022-07-29T01:50:44;20.20;99.90
10051;DHT22;5065;46.942;7.432;2022-07-29T01:53:14;20.20;99.90
10051;DHT22;5065;46.942;7.432;2022-07-29T01:55:44;20.10;99.90
10051;DHT22;5065;46.942;7.432;2022-07-29T01:58:14;20.20;99.90
10051;DHT22;5065;46.942;7.432;2022-07-29T02:00:46;20.30;99.90
10051;DHT22;5065;46.942;7.432;2022-07-29T02:03:15;20.30;99.90
10051;DHT22;5065;46.942;7.432;2022-07-29T02:05:45;20.40;99.90
10051;DHT22;5065;46.942;7.432;2022-07-29T02:08:13;20.30;99.90
10051;DHT22;5065;46.942;7.432;2022-07-29T02:10:43;20.30;99.90
10051;DHT22;5065;46.942;7.432;2022-07-29T02:13:11;20.30;99.90
10051;DHT22;5065;46.942;7.432;2022-07-29T02:15:42;20.20;99.90
10051;DHT22;5065;46.942;7.432;2022-07-29T02:18:14;20.20;99.90
10051;DHT22;5065;46.942;7.432;2022-07-29T02:20:46;20.20;99.90
10051;DHT22;5065;46.942;7.432;2022-07-29T02:23:17;20.30;99.90
10051;DHT22;5065;46.942;7.432;2022-07-29T02:25:46;20.30;99.90
10051;DHT22;5065;46.942;7.432;2022-07-29T02:28:15;20.30;99.90
10051;DHT22;5065;46.942;7.432;2022-07-29T02:30:43;20.30;99.90
10051;DHT22;5065;46.942;7.432;2022-07-29T02:33:15;20.20;99.90
10051;DHT22;5065;46.942;7.432;2022-07-29T02:35:47;20.20;99.90
10051;DHT22;5065;46.942;7.432;2022-07-29T02:38:15;20.10;99.90
10051;DHT22;5065;46.942;7.432;2022-07-29T02:41:03;20.10;99.90
10051;DHT22;5065;46.942;7.432;2022-07-29T02:43:30;20.10;99.90
10051;DHT22;5065;46.942;7.432;2022-07-29T02:45:59;20.10;99.90
10051;DHT22;5065;46.942;7.432;2022-07-29T02:48:36;20.20;99.90
10051;DHT22;5065;46.942;7.432;2022-07-29T02:51:07;20.20;99.90
10051;DHT22;5065;46.942;7.432;2022-07-29T02:53:37;20.20;99.90
10051;DHT22;5065;46.942;7.432;2022-07-29T02:56:10;20.20;99.90
10051;DHT22;5065;46.942;7.432;2022-07-29T02:58:42;20.10;99.90
10051;DHT22;5065;46.942;7.432;2022-07-29T03:01:14;20.00;99.90
10051;DHT22;5065;46.942;7.432;2022-07-29T03:03:44;20.00;99.90
10051;DHT22;5065;46.942;7.432;2022-07-29T03:06:15;20.00;99.90
10051;DHT22;5065;46.942;7.432;2022-07-29T03:08:44;20.10;99.90
10051;DHT22;5065;46.942;7.432;2022-07-29T03:11:12;20.20;99.90
10051;DHT22;5065;46.942;7.432;2022-07-29T03:13:40;20.20;99.90
10051;DHT22;5065;46.942;7.432;2022-07-29T03:16:08;20.20;99.90
10051;DHT22;5065;46.942;7.432;2022-07-29T03:18:36;20.10;99.90
10051;DHT22;5065;46.942;7.432;2022-07-29T03:21:05;20.00;99.90
10051;DHT22;5065;46.942;7.432;2022-07-29T03:23:32;19.90;99.90
10051;DHT22;5065;46.942;7.432;2022-07-29T03:25:59;19.80;99.90
10051;DHT22;5065;46.942;7.432;2022-07-29T03:28:27;19.70;99.90
10051;DHT22;5065;46.942;7.432;2022-07-29T03:30:54;19.70;99.90
10051;DHT22;5065;46.942;7.432;2022-07-29T03:33:21;19.70;99.90
10051;DHT22;5065;46.942;7.432;2022-07-29T03:35:48;19.70;99.90
10051;DHT22;5065;46.942;7.432;2022-07-29T03:38:17;19.70;99.90
10051;DHT22;5065;46.942;7.432;2022-07-29T03:40:48;19.70;99.90
10051;DHT22;5065;46.942;7.432;2022-07-29T03:43:17;19.70;99.90
10051;DHT22;5065;46.942;7.432;2022-07-29T03:45:47;19.70;99.90
10051;DHT22;5065;46.942;7.432;2022-07-29T03:48:19;19.70;99.90
10051;DHT22;5065;46.942;7.432;2022-07-29T03:50:47;19.60;99.90
10051;DHT22;5065;46.942;7.432;2022-07-29T03:53:14;19.50;99.90
10051;DHT22;5065;46.942;7.432;2022-07-29T03:55:47;19.50;99.90
10051;DHT22;5065;46.942;7.432;2022-07-29T03:58:15;19.60;99.90
10051;DHT22;5065;46.942;7.432;2022-07-29T04:00:43;19.60;99.90
10051;DHT22;5065;46.942;7.432;2022-07-29T04:03:11;19.70;99.90
10051;DHT22;5065;46.942;7.432;2022-07-29T04:05:39;19.60;99.90
10051;DHT22;5065;46.942;7.432;2022-07-29T04:08:06;19.60;99.90
10051;DHT22;5065;46.942;7.432;2022-07-29T04:10:33;19.60;99.90
10051;DHT22;5065;46.942;7.432;2022-07-29T04:13:02;19.60;99.90
10051;DHT22;5065;46.942;7.432;2022-07-29T04:15:29;19.50;99.90
10051;DHT22;5065;46.942;7.432;2022-07-29T04:17:56;19.50;99.90
10051;DHT22;5065;46.942;7.432;2022-07-29T04:20:23;19.50;99.90
10051;DHT22;5065;46.942;7.432;2022-07-29T04:22:50;19.50;99.90
10051;DHT22;5065;46.942;7.432;2022-07-29T04:25:17;19.50;99.90
10051;DHT22;5065;46.942;7.432;2022-07-29T04:27:44;19.60;99.90
10051;DHT22;5065;46.942;7.432;2022-07-29T04:30:28;19.60;99.90
10051;DHT22;5065;46.942;7.432;2022-07-29T04:32:56;19.70;99.90
10051;DHT22;5065;46.942;7.432;2022-07-29T04:35:23;19.70;99.90
10051;DHT22;5065;46.942;7.432;2022-07-29T04:37:50;19.70;99.90
10051;DHT22;5065;46.942;7.432;2022-07-29T04:40:17;19.70;99.90
10051;DHT22;5065;46.942;7.432;2022-07-29T04:42:44;19.60;99.90
10051;DHT22;5065;46.942;7.432;2022-07-29T04:45:12;19.60;99.90
10051;DHT22;5065;46.942;7.432;2022-07-29T04:47:42;19.60;99.90
10051;DHT22;5065;46.942;7.432;2022-07-29T04:50:09;19.60;99.90
10051;DHT22;5065;46.942;7.432;2022-07-29T04:52:37;19.70;99.90
10051;DHT22;5065;46.942;7.432;2022-07-29T04:55:05;19.70;99.90
10051;DHT22;5065;46.942;7.432;2022-07-29T04:57:32;19.70;99.90
10051;DHT22;5065;46.942;7.432;2022-07-29T05:00:00;19.70;99.90
10051;DHT22;5065;46.942;7.432;2022-07-29T05:02:27;19.80;99.90
10051;DHT22;5065;46.942;7.432;2022-07-29T05:04:56;19.80;99.90
10051;DHT22;5065;46.942;7.432;2022-07-29T05:07:23;19.80;99.90
10051;DHT22;5065;46.942;7.432;2022-07-29T05:09:50;19.80;99.90
10051;DHT22;5065;46.942;7.432;2022-07-29T05:12:18;19.80;99.90
10051;DHT22;5065;46.942;7.432;2022-07-29T05:14:45;19.90;99.90
10051;DHT22;5065;46.942;7.432;2022-07-29T05:17:12;19.90;99.90
10051;DHT22;5065;46.942;7.432;2022-07-29T05:19:39;19.90;99.90
10051;DHT22;5065;46.942;7.432;2022-07-29T05:22:08;19.90;99.90
10051;DHT22;5065;46.942;7.432;2022-07-29T05:24:35;19.90;99.90
10051;DHT22;5065;46.942;7.432;2022-07-29T05:27:02;19.90;99.90
10051;DHT22;5065;46.942;7.432;2022-07-29T05:29:30;19.90;99.90
10051;DHT22;5065;46.942;7.432;2022-07-29T05:31:57;19.90;99.90
10051;DHT22;5065;46.942;7.432;2022-07-29T05:34:24;19.80;99.90
10051;DHT22;5065;46.942;7.432;2022-07-29T05:36:51;19.80;99.90
10051;DHT22;5065;46.942;7.432;2022-07-29T05:39:20;19.80;99.90
10051;DHT22;5065;46.942;7.432;2022-07-29T05:41:47;19.80;99.90
10051;DHT22;5065;46.942;7.432;2022-07-29T05:44:14;19.70;99.90
10051;DHT22;5065;46.942;7.432;2022-07-29T05:46:42;19.70;99.90
10051;DHT22;5065;46.942;7.432;2022-07-29T05:49:09;19.70;99.90
10051;DHT22;5065;46.942;7.432;2022-07-29T05:51:36;19.70;99.90
10051;DHT22;5065;46.942;7.432;2022-07-29T05:54:03;19.70;99.90
10051;DHT22;5065;46.942;7.432;2022-07-29T05:56:32;19.60;99.90
10051;DHT22;5065;46.942;7.432;2022-07-29T05:58:59;19.50;99.90
10051;DHT22;5065;46.942;7.432;2022-07-29T06:01:26;19.50;99.90
10051;DHT22;5065;46.942;7.432;2022-07-29T06:03:53;19.60;99.90
10051;DHT22;5065;46.942;7.432;2022-07-29T06:06:21;19.60;99.90
10051;DHT22;5065;46.942;7.432;2022-07-29T06:08:50;19.60;99.90
10051;DHT22;5065;46.942;7.432;2022-07-29T06:11:17;19.60;99.90
10051;DHT22;5065;46.942;7.432;2022-07-29T06:13:45;19.70;99.90
10051;DHT22;5065;46.942;7.432;2022-07-29T06:16:13;19.90;99.90
10051;DHT22;5065;46.942;7.432;2022-07-29T06:18:40;20.30;99.90
10051;DHT22;5065;46.942;7.432;2022-07-29T06:21:10;20.80;99.90
10051;DHT22;5065;46.942;7.432;2022-07-29T06:23:37;21.10;99.90
10051;DHT22;5065;46.942;7.432;2022-07-29T06:26:05;21.10;99.90
10051;DHT22;5065;46.942;7.432;2022-07-29T06:28:32;21.00;99.90
10051;DHT22;5065;46.942;7.432;2022-07-29T06:31:01;20.80;99.90
10051;DHT22;5065;46.942;7.432;2022-07-29T06:33:28;20.70;99.90
10051;DHT22;5065;46.942;7.432;2022-07-29T06:35:55;20.60;99.90
10051;DHT22;5065;46.942;7.432;2022-07-29T06:38:22;20.50;99.90
10051;DHT22;5065;46.942;7.432;2022-07-29T06:40:50;20.40;99.90
10051;DHT22;5065;46.942;7.432;2022-07-29T06:43:31;20.40;99.90
10051;DHT22;5065;46.942;7.432;2022-07-29T06:46:05;20.30;99.90
10051;DHT22;5065;46.942;7.432;2022-07-29T06:48:33;20.30;99.90
10051;DHT22;5065;46.942;7.432;2022-07-29T06:51:02;20.40;99.90
10051;DHT22;5065;46.942;7.432;2022-07-29T06:53:30;20.50;99.90
10051;DHT22;5065;46.942;7.432;2022-07-29T06:55:58;20.70;99.90
10051;DHT22;5065;46.942;7.432;2022-07-29T06:58:26;21.40;99.90
10051;DHT22;5065;46.942;7.432;2022-07-29T07:00:54;22.00;99.90
10051;DHT22;5065;46.942;7.432;2022-07-29T07:03:22;22.20;99.90
10051;DHT22;5065;46.942;7.432;2022-07-29T07:05:51;22.10;99.90
10051;DHT22;5065;46.942;7.432;2022-07-29T07:08:19;22.00;99.90
10051;DHT22;5065;46.942;7.432;2022-07-29T07:10:47;21.90;99.90
10051;DHT22;5065;46.942;7.432;2022-07-29T07:13:15;22.10;99.90
10051;DHT22;5065;46.942;7.432;2022-07-29T07:15:43;22.20;99.90
10051;DHT22;5065;46.942;7.432;2022-07-29T07:18:11;22.40;99.90
10051;DHT22;5065;46.942;7.432;2022-07-29T07:20:39;22.50;99.90
10051;DHT22;5065;46.942;7.432;2022-07-29T07:23:06;22.50;99.90
10051;DHT22;5065;46.942;7.432;2022-07-29T07:25:34;22.30;99.90
10051;DHT22;5065;46.942;7.432;2022-07-29T07:28:01;22.00;99.90
10051;DHT22;5065;46.942;7.432;2022-07-29T07:30:28;21.80;99.90
10051;DHT22;5065;46.942;7.432;2022-07-29T07:32:55;21.60;99.90
10051;DHT22;5065;46.942;7.432;2022-07-29T07:35:22;21.30;99.90
10051;DHT22;5065;46.942;7.432;2022-07-29T07:37:51;21.10;99.90
10051;DHT22;5065;46.942;7.432;2022-07-29T07:40:18;21.10;99.90
10051;DHT22;5065;46.942;7.432;2022-07-29T07:42:45;21.10;99.90
10051;DHT22;5065;46.942;7.432;2022-07-29T07:45:12;21.10;99.90
10051;DHT22;5065;46.942;7.432;2022-07-29T07:47:40;21.20;99.90
10051;DHT22;5065;46.942;7.432;2022-07-29T07:50:09;21.30;99.90
10051;DHT22;5065;46.942;7.432;2022-07-29T07:52:46;21.40;99.90
10051;DHT22;5065;46.942;7.432;2022-07-29T07:55:16;21.50;99.90
10051;DHT22;5065;46.942;7.432;2022-07-29T07:57:43;21.70;99.90
10051;DHT22;5065;46.942;7.432;2022-07-29T08:00:12;21.80;99.90
10051;DHT22;5065;46.942;7.432;2022-07-29T08:02:40;21.90;99.90
10051;DHT22;5065;46.942;7.432;2022-07-29T08:05:08;21.90;99.90
10051;DHT22;5065;46.942;7.432;2022-07-29T08:07:35;21.80;99.90
10051;DHT22;5065;46.942;7.432;2022-07-29T08:10:03;21.80;99.90
10051;DHT22;5065;46.942;7.432;2022-07-29T08:12:32;21.80;99.90
10051;DHT22;5065;46.942;7.432;2022-07-29T08:14:59;21.80;99.90
10051;DHT22;5065;46.942;7.432;2022-07-29T08:17:26;21.80;99.90
10051;DHT22;5065;46.942;7.432;2022-07-29T08:19:54;21.90;99.90
10051;DHT22;5065;46.942;7.432;2022-07-29T08:22:21;22.10;99.90
10051;DHT22;5065;46.942;7.432;2022-07-29T08:24:48;22.20;99.90
10051;DHT22;5065;46.942;7.432;2022-07-29T08:27:19;22.60;99.90
10051;DHT22;5065;46.942;7.432;2022-07-29T08:29:48;23.40;99.90
10051;DHT22;5065;46.942;7.432;2022-07-29T08:32:15;24.20;99.90
10051;DHT22;5065;46.942;7.432;2022-07-29T08:34:42;24.70;99.90
10051;DHT22;5065;46.942;7.432;2022-07-29T08:37:12;25.00;99.90
10051;DHT22;5065;46.942;7.432;2022-07-29T08:39:39;25.40;99.90
10051;DHT22;5065;46.942;7.432;2022-07-29T08:42:06;25.80;99.90
10051;DHT22;5065;46.942;7.432;2022-07-29T08:44:33;26.00;99.90
10051;DHT22;5065;46.942;7.432;2022-07-29T08:47:02;26.30;99.90
10051;DHT22;5065;46.942;7.432;2022-07-29T08:49:29;26.30;99.90
10051;DHT22;5065;46.942;7.432;2022-07-29T08:51:56;26.40;99.90
10051;DHT22;5065;46.942;7.432;2022-07-29T08:54:23;26.40;99.90
10051;DHT22;5065;46.942;7.432;2022-07-29T08:56:51;26.40;99.90
10051;DHT22;5065;46.942;7.432;2022-07-29T08:59:20;26.30;99.90
10051;DHT22;5065;46.942;7.432;2022-07-29T09:01:49;26.10;99.90
10051;DHT22;5065;46.942;7.432;2022-07-29T09:04:20;25.90;99.90
10051;DHT22;5065;46.942;7.432;2022-07-29T09:06:51;25.80;99.90
10051;DHT22;5065;46.942;7.432;2022-07-29T09:09:18;25.70;99.90
10051;DHT22;5065;46.942;7.432;2022-07-29T09:11:46;25.70;99.90
10051;DHT22;5065;46.942;7.432;2022-07-29T09:14:14;25.60;99.90
10051;DHT22;5065;46.942;7.432;2022-07-29T09:16:52;25.60;99.90
10051;DHT22;5065;46.942;7.432;2022-07-29T09:19:24;25.50;99.90
10051;DHT22;5065;46.942;7.432;2022-07-29T09:21:52;25.60;99.90
10051;DHT22;5065;46.942;7.432;2022-07-29T09:24:28;25.60;99.90
10051;DHT22;5065;46.942;7.432;2022-07-29T09:27:08;25.70;99.90
10051;DHT22;5065;46.942;7.432;2022-07-29T09:29:35;25.70;99.90
10051;DHT22;5065;46.942;7.432;2022-07-29T09:32:08;25.70;99.90
10051;DHT22;5065;46.942;7.432;2022-07-29T09:34:37;25.60;99.90
10051;DHT22;5065;46.942;7.432;2022-07-29T09:37:04;25.60;99.90
10051;DHT22;5065;46.942;7.432;2022-07-29T09:39:35;25.50;99.90
10051;DHT22;5065;46.942;7.432;2022-07-29T09:42:05;25.60;99.90
10051;DHT22;5065;46.942;7.432;2022-07-29T09:44:43;25.60;99.90
10051;DHT22;5065;46.942;7.432;2022-07-29T09:47:10;25.90;99.90
10051;DHT22;5065;46.942;7.432;2022-07-29T09:49:51;26.50;99.90
10051;DHT22;5065;46.942;7.432;2022-07-29T09:52:18;26.90;99.90
10051;DHT22;5065;46.942;7.432;2022-07-29T09:54:45;27.20;99.90
10051;DHT22;5065;46.942;7.432;2022-07-29T09:57:21;27.40;99.90
10051;DHT22;5065;46.942;7.432;2022-07-29T09:59:56;27.40;99.90
10051;DHT22;5065;46.942;7.432;2022-07-29T10:02:28;27.30;99.90
10051;DHT22;5065;46.942;7.432;2022-07-29T10:04:58;27.10;99.90
10051;DHT22;5065;46.942;7.432;2022-07-29T10:07:25;26.90;99.90
10051;DHT22;5065;46.942;7.432;2022-07-29T10:09:56;26.80;99.90
10051;DHT22;5065;46.942;7.432;2022-07-29T10:12:24;26.60;99.90
10051;DHT22;5065;46.942;7.432;2022-07-29T10:14:51;26.60;99.90
10051;DHT22;5065;46.942;7.432;2022-07-29T10:17:19;26.50;99.90
10051;DHT22;5065;46.942;7.432;2022-07-29T10:19:47;26.50;99.90
10051;DHT22;5065;46.942;7.432;2022-07-29T10:22:17;26.40;99.90
10051;DHT22;5065;46.942;7.432;2022-07-29T10:24:45;26.40;99.90
10051;DHT22;5065;46.942;7.432;2022-07-29T10:27:12;26.30;99.90
10051;DHT22;5065;46.942;7.432;2022-07-29T10:29:39;26.20;99.90
10051;DHT22;5065;46.942;7.432;2022-07-29T10:32:13;26.30;99.90
10051;DHT22;5065;46.942;7.432;2022-07-29T10:38:10;26.40;99.90
10051;DHT22;5065;46.942;7.432;2022-07-29T10:40:51;26.40;99.90
10051;DHT22;5065;46.942;7.432;2022-07-29T10:43:42;26.40;99.90
10051;DHT22;5065;46.942;7.432;2022-07-29T10:46:10;26.50;99.90
10051;DHT22;5065;46.942;7.432;2022-07-29T10:49:06;26.60;99.90
10051;DHT22;5065;46.942;7.432;2022-07-29T10:51:54;26.50;99.90
10051;DHT22;5065;46.942;7.432;2022-07-29T10:57:16;26.30;99.90
10051;DHT22;5065;46.942;7.432;2022-07-29T10:59:45;26.20;99.90
10051;DHT22;5065;46.942;7.432;2022-07-29T11:02:43;26.00;99.90
10051;DHT22;5065;46.942;7.432;2022-07-29T11:05:12;25.80;99.90
10051;DHT22;5065;46.942;7.432;2022-07-29T11:10:46;25.80;99.90
10051;DHT22;5065;46.942;7.432;2022-07-29T11:16:18;25.80;99.90
10051;DHT22;5065;46.942;7.432;2022-07-29T11:19:18;25.80;99.90
10051;DHT22;5065;46.942;7.432;2022-07-29T11:21:46;25.80;99.90
10051;DHT22;5065;46.942;7.432;2022-07-29T11:24:16;25.80;99.90
10051;DHT22;5065;46.942;7.432;2022-07-29T11:26:44;25.80;99.90
10051;DHT22;5065;46.942;7.432;2022-07-29T11:29:18;25.80;99.90
10051;DHT22;5065;46.942;7.432;2022-07-29T11:31:49;25.80;99.90
10051;DHT22;5065;46.942;7.432;2022-07-29T11:34:24;25.80;99.90
10051;DHT22;5065;46.942;7.432;2022-07-29T11:37:15;25.80;99.90
10051;DHT22;5065;46.942;7.432;2022-07-29T11:39:42;25.80;99.90
10051;DHT22;5065;46.942;7.432;2022-07-29T11:42:42;25.80;99.90
10051;DHT22;5065;46.942;7.432;2022-07-29T11:45:13;25.70;99.90
10051;DHT22;5065;46.942;7.432;2022-07-29T11:47:49;25.50;99.90
10051;DHT22;5065;46.942;7.432;2022-07-29T11:50:26;25.40;99.90
10051;DHT22;5065;46.942;7.432;2022-07-29T11:52:54;25.40;99.90
10051;DHT22;5065;46.942;7.432;2022-07-29T11:55:23;25.30;99.90
10051;DHT22;5065;46.942;7.432;2022-07-29T11:57:51;25.30;99.90
10051;DHT22;5065;46.942;7.432;2022-07-29T12:00:24;25.20;99.90
10051;DHT22;5065;46.942;7.432;2022-07-29T12:02:54;25.20;99.90
10051;DHT22;5065;46.942;7.432;2022-07-29T12:05:29;25.10;99.90
10051;DHT22;5065;46.942;7.432;2022-07-29T12:08:08;25.10;99.90
10051;DHT22;5065;46.942;7.432;2022-07-29T12:10:35;25.00;99.90
10051;DHT22;5065;46.942;7.432;2022-07-29T12:13:03;24.90;99.90
10051;DHT22;5065;46.942;7.432;2022-07-29T12:15:30;24.80;99.90
10051;DHT22;5065;46.942;7.432;2022-07-29T12:18:09;24.80;99.90
10051;DHT22;5065;46.942;7.432;2022-07-29T12:20:37;24.70;99.90
10051;DHT22;5065;46.942;7.432;2022-07-29T12:23:08;24.60;99.90
10051;DHT22;5065;46.942;7.432;2022-07-29T12:25:38;24.50;99.90
10051;DHT22;5065;46.942;7.432;2022-07-29T12:28:07;24.40;99.90
10051;DHT22;5065;46.942;7.432;2022-07-29T12:30:40;24.30;99.90
10051;DHT22;5065;46.942;7.432;2022-07-29T12:33:17;24.20;99.90
10051;DHT22;5065;46.942;7.432;2022-07-29T12:35:47;24.20;99.90
10051;DHT22;5065;46.942;7.432;2022-07-29T12:38:16;24.10;99.90
10051;DHT22;5065;46.942;7.432;2022-07-29T12:40:44;24.10;99.90
10051;DHT22;5065;46.942;7.432;2022-07-29T12:43:14;24.00;99.90
10051;DHT22;5065;46.942;7.432;2022-07-29T12:45:44;24.00;99.90
10051;DHT22;5065;46.942;7.432;2022-07-29T12:48:11;23.90;99.90
10051;DHT22;5065;46.942;7.432;2022-07-29T12:50:58;23.70;99.90
10051;DHT22;5065;46.942;7.432;2022-07-29T12:53:26;23.60;99.90
10051;DHT22;5065;46.942;7.432;2022-07-29T12:55:55;23.50;99.90
10051;DHT22;5065;46.942;7.432;2022-07-29T12:58:27;23.40;99.90
10051;DHT22;5065;46.942;7.432;2022-07-29T13:01:05;23.20;99.90
10051;DHT22;5065;46.942;7.432;2022-07-29T13:03:46;23.20;99.90
10051;DHT22;5065;46.942;7.432;2022-07-29T13:06:35;23.10;99.90
10051;DHT22;5065;46.942;7.432;2022-07-29T13:09:08;22.90;99.90
10051;DHT22;5065;46.942;7.432;2022-07-29T13:11:38;22.90;99.90
10051;DHT22;5065;46.942;7.432;2022-07-29T13:14:06;22.80;99.90
10051;DHT22;5065;46.942;7.432;2022-07-29T13:16:35;22.70;99.90
10051;DHT22;5065;46.942;7.432;2022-07-29T13:19:10;22.60;99.90
10051;DHT22;5065;46.942;7.432;2022-07-29T13:21:39;22.50;99.90
10051;DHT22;5065;46.942;7.432;2022-07-29T13:24:07;22.40;99.90
10051;DHT22;5065;46.942;7.432;2022-07-29T13:26:36;22.30;99.90
10051;DHT22;5065;46.942;7.432;2022-07-29T13:29:06;22.30;99.90
10051;DHT22;5065;46.942;7.432;2022-07-29T13:31:33;22.30;99.90
10051;DHT22;5065;46.942;7.432;2022-07-29T13:34:00;22.40;99.90
10051;DHT22;5065;46.942;7.432;2022-07-29T13:36:27;22.50;99.90
10051;DHT22;5065;46.942;7.432;2022-07-29T13:38:56;22.50;99.90
10051;DHT22;5065;46.942;7.432;2022-07-29T13:41:23;22.50;99.90
10051;DHT22;5065;46.942;7.432;2022-07-29T13:43:50;22.50;99.90
10051;DHT22;5065;46.942;7.432;2022-07-29T13:46:17;22.50;99.90
10051;DHT22;5065;46.942;7.432;2022-07-29T13:48:44;22.50;99.90
10051;DHT22;5065;46.942;7.432;2022-07-29T13:51:11;22.50;99.90
10051;DHT22;5065;46.942;7.432;2022-07-29T13:53:39;22.50;99.90
10051;DHT22;5065;46.942;7.432;2022-07-29T13:56:07;22.50;99.90
10051;DHT22;5065;46.942;7.432;2022-07-29T13:58:34;22.50;99.90
10051;DHT22;5065;46.942;7.432;2022-07-29T14:01:02;22.50;99.90
10051;DHT22;5065;46.942;7.432;2022-07-29T14:03:29;22.50;99.90
10051;DHT22;5065;46.942;7.432;2022-07-29T14:05:57;22.40;99.90
10051;DHT22;5065;46.942;7.432;2022-07-29T14:08:25;22.40;99.90
10051;DHT22;5065;46.942;7.432;2022-07-29T14:10:53;22.40;99.90
10051;DHT22;5065;46.942;7.432;2022-07-29T14:13:21;22.50;99.90
10051;DHT22;5065;46.942;7.432;2022-07-29T14:15:48;22.50;99.90
10051;DHT22;5065;46.942;7.432;2022-07-29T14:18:15;22.50;99.90
10051;DHT22;5065;46.942;7.432;2022-07-29T14:20:42;22.50;99.90
10051;DHT22;5065;46.942;7.432;2022-07-29T14:23:10;22.50;99.90
10051;DHT22;5065;46.942;7.432;2022-07-29T14:25:37;22.50;99.90
10051;DHT22;5065;46.942;7.432;2022-07-29T14:28:05;22.40;99.90
10051;DHT22;5065;46.942;7.432;2022-07-29T14:30:34;22.40;99.90
10051;DHT22;5065;46.942;7.432;2022-07-29T14:33:01;22.40;99.90
10051;DHT22;5065;46.942;7.432;2022-07-29T14:35:28;22.30;99.90
10051;DHT22;5065;46.942;7.432;2022-07-29T14:37:55;22.30;99.90
10051;DHT22;5065;46.942;7.432;2022-07-29T14:40:23;22.40;99.90
10051;DHT22;5065;46.942;7.432;2022-07-29T14:42:51;22.40;99.90
10051;DHT22;5065;46.942;7.432;2022-07-29T14:45:18;22.40;99.90
10051;DHT22;5065;46.942;7.432;2022-07-29T14:47:47;22.40;99.90
10051;DHT22;5065;46.942;7.432;2022-07-29T14:50:16;22.40;99.90
10051;DHT22;5065;46.942;7.432;2022-07-29T14:52:44;22.30;99.90
10051;DHT22;5065;46.942;7.432;2022-07-29T14:55:11;22.30;99.90
10051;DHT22;5065;46.942;7.432;2022-07-29T14:57:38;22.30;99.90
10051;DHT22;5065;46.942;7.432;2022-07-29T15:00:07;22.30;99.90
10051;DHT22;5065;46.942;7.432;2022-07-29T15:02:34;22.30;99.90
10051;DHT22;5065;46.942;7.432;2022-07-29T15:05:03;22.20;99.90
10051;DHT22;5065;46.942;7.432;2022-07-29T15:07:30;22.10;99.90
10051;DHT22;5065;46.942;7.432;2022-07-29T15:09:58;22.00;99.90
10051;DHT22;5065;46.942;7.432;2022-07-29T15:12:25;21.80;99.90
10051;DHT22;5065;46.942;7.432;2022-07-29T15:14:52;21.70;99.90
10051;DHT22;5065;46.942;7.432;2022-07-29T15:17:19;21.60;99.90
10051;DHT22;5065;46.942;7.432;2022-07-29T15:19:46;21.60;99.90
10051;DHT22;5065;46.942;7.432;2022-07-29T15:22:15;21.60;99.90
10051;DHT22;5065;46.942;7.432;2022-07-29T15:24:42;21.60;99.90
10051;DHT22;5065;46.942;7.432;2022-07-29T15:27:10;21.50;99.90
10051;DHT22;5065;46.942;7.432;2022-07-29T15:29:39;21.50;99.90
10051;DHT22;5065;46.942;7.432;2022-07-29T15:32:10;21.60;99.90
10051;DHT22;5065;46.942;7.432;2022-07-29T15:34:37;21.70;99.90
10051;DHT22;5065;46.942;7.432;2022-07-29T15:37:05;21.80;99.90
10051;DHT22;5065;46.942;7.432;2022-07-29T15:39:33;21.90;99.90
10051;DHT22;5065;46.942;7.432;2022-07-29T15:42:01;22.00;99.90
10051;DHT22;5065;46.942;7.432;2022-07-29T15:44:29;22.10;99.90
10051;DHT22;5065;46.942;7.432;2022-07-29T15:46:56;22.20;99.90
10051;DHT22;5065;46.942;7.432;2022-07-29T15:49:34;22.30;99.90
10051;DHT22;5065;46.942;7.432;2022-07-29T15:52:03;22.40;99.90
10051;DHT22;5065;46.942;7.432;2022-07-29T15:54:33;22.50;99.90
10051;DHT22;5065;46.942;7.432;2022-07-29T15:57:01;22.50;99.90
10051;DHT22;5065;46.942;7.432;2022-07-29T15:59:29;22.50;99.90
10051;DHT22;5065;46.942;7.432;2022-07-29T16:01:56;22.40;99.90
10051;DHT22;5065;46.942;7.432;2022-07-29T16:04:23;22.40;99.90
10051;DHT22;5065;46.942;7.432;2022-07-29T16:06:50;22.30;99.90
10051;DHT22;5065;46.942;7.432;2022-07-29T16:09:18;22.30;99.90
10051;DHT22;5065;46.942;7.432;2022-07-29T16:11:47;22.20;99.90